Time;durP1;ratioP1;P1;durP2;ratioP2;P2;SDS_P1;SDS_P2;PMS_P1;PMS_P2;Temp;Humidity;BMP_temperature;BMP_pressure;BME280_temperature;BME280_humidity;BME280_pressure;Samples;Min_cycle;Max_cycle;Signal;HPM_P1;HPM_P2
2022/11/07 00:01:56;;;;;;;;;;;;;;;-148.88;87.22;75423.81;5059633;28;19909;-82
2022/11/07 00:04:21;;;;;;;;;;;;;;;-148.88;87.66;75427.88;5060248;28;19908;-82
2022/11/07 00:06:47;;;;;;;;;;;;;;;-148.88;87.35;75431.94;5075511;28;19954;-82
2022/11/07 00:09:12;;;;;;;;;;;;;;;-148.88;87.33;75429.91;5082274;28;19972;-82
2022/11/07 00:11:37;;;;;;;;;;;;;;;-148.88;87.13;75427.88;5080916;28;20373;-82
2022/11/07 00:14:02;;;;;;;;;;;;;;;-148.88;86.79;75431.94;5080307;28;20267;-81
2022/11/07 00:16:28;;;;;;;;;;;;;;;-148.88;86.82;75429.91;5079207;28;20370;-82
2022/11/07 00:18:53;;;;;;;;;;;;;;;-148.88;87.23;75433.97;5077596;28;20373;-82
2022/11/07 00:21:18;;;;;;;;;;;;;;;-148.88;87.08;75433.97;5077578;28;19909;-81
2022/11/07 00:23:46;;;;;;;;;;;;;;;-148.88;87.25;75436.00;5058885;28;19967;-81
2022/11/07 00:26:12;;;;;;;;;;;;;;;-148.88;87.40;75442.09;5058508;28;19915;-82
2022/11/07 00:28:39;;;;;;;;;;;;;;;-148.88;87.62;75442.09;5058843;28;19948;-80
2022/11/07 00:31:05;;;;;;;;;;;;;;;-148.88;88.24;75452.25;5058859;28;19912;-81
2022/11/07 00:33:30;;;;;;;;;;;;;;;-148.88;88.00;75452.25;5076746;28;19908;-82
2022/11/07 00:35:55;;;;;;;;;;;;;;;-148.88;87.84;75456.31;5076634;28;19908;-81
2022/11/07 00:38:20;;;;;;;;;;;;;;;-148.88;87.73;75450.22;5058482;28;19916;-81
2022/11/07 00:41:03;;;;;;;;;;;;;;;-148.88;87.41;75448.19;5076124;28;19919;-81
2022/11/07 00:43:29;;;;;;;;;;;;;;;-148.88;88.02;75452.25;5076739;28;19987;-82
2022/11/07 00:45:54;;;;;;;;;;;;;;;-148.88;88.38;75452.25;5058172;28;19950;-81
2022/11/07 00:48:20;;;;;;;;;;;;;;;-148.88;87.84;75440.06;5058487;28;19958;-82
2022/11/07 00:50:46;;;;;;;;;;;;;;;-148.88;87.70;75456.31;5076020;28;20392;-82
2022/11/07 00:53:11;;;;;;;;;;;;;;;-148.88;87.70;75438.03;5075539;28;19908;-82
2022/11/07 00:55:37;;;;;;;;;;;;;;;-148.88;88.21;75452.25;5089510;28;19909;-82
2022/11/07 00:58:02;;;;;;;;;;;;;;;-148.88;87.82;75460.38;5088991;28;20370;-82
2022/11/07 01:00:27;;;;;;;;;;;;;;;-148.88;87.82;75452.25;5091251;28;19930;-82
2022/11/07 01:05:40;;;;;;;;;;;;;;;-148.88;88.57;75460.38;5090829;28;19915;-82
2022/11/07 01:08:05;;;;;;;;;;;;;;;-148.88;88.05;75460.38;5090706;28;19943;-81
2022/11/07 01:10:30;;;;;;;;;;;;;;;-148.88;88.17;75456.31;5067347;28;19919;-82
2022/11/07 01:12:55;;;;;;;;;;;;;;;-148.88;88.53;75466.47;5062098;28;19908;-83
2022/11/07 01:15:21;;;;;;;;;;;;;;;-148.88;88.54;75466.47;5079802;28;19954;-82
2022/11/07 01:17:46;;;;;;;;;;;;;;;-148.88;88.11;75456.31;5062327;28;19954;-83
2022/11/07 01:20:11;;;;;;;;;;;;;;;-148.88;88.50;75464.44;5061721;28;19915;-82
2022/11/07 01:22:36;;;;;;;;;;;;;;;-148.88;88.77;75460.38;5061852;28;19908;-82
2022/11/07 01:25:02;;;;;;;;;;;;;;;-148.88;89.07;75464.44;5079366;28;19943;-82
2022/11/07 01:27:28;;;;;;;;;;;;;;;-148.88;88.55;75456.31;5062142;28;19920;-83
2022/11/07 01:29:53;;;;;;;;;;;;;;;-148.88;89.16;75468.50;5079764;28;19913;-83
2022/11/07 01:32:18;;;;;;;;;;;;;;;-148.88;89.05;75462.41;5078261;28;19908;-80
2022/11/07 01:34:44;;;;;;;;;;;;;;;-148.88;89.15;75472.56;5075276;28;19908;-81
2022/11/07 01:37:09;;;;;;;;;;;;;;;-148.88;89.68;75464.44;5077601;28;19912;-82
2022/11/07 01:39:34;;;;;;;;;;;;;;;-148.88;89.48;75464.44;5079308;28;19912;-83
2022/11/07 01:41:59;;;;;;;;;;;;;;;-148.88;89.13;75460.38;5079606;28;19912;-82
2022/11/07 01:44:25;;;;;;;;;;;;;;;-148.88;89.27;75452.25;5061110;28;19913;-83
2022/11/07 01:46:51;;;;;;;;;;;;;;;-148.88;89.31;75460.38;5060449;28;19909;-82
2022/11/07 01:49:22;;;;;;;;;;;;;;;-148.88;89.24;75452.25;5061168;28;19920;-82
2022/11/07 01:51:49;;;;;;;;;;;;;;;-148.88;89.63;75462.41;5078820;28;20362;-83
2022/11/07 01:54:16;;;;;;;;;;;;;;;-148.88;90.11;75448.19;5061164;28;20371;-83
2022/11/07 01:56:42;;;;;;;;;;;;;;;-148.88;89.97;75452.25;5061499;28;19912;-82
2022/11/07 01:59:10;;;;;;;;;;;;;;;-148.88;90.42;75452.25;5060855;28;19939;-83
2022/11/07 02:01:35;;;;;;;;;;;;;;;-148.88;90.31;75448.19;5078517;28;19920;-82
2022/11/07 02:04:01;;;;;;;;;;;;;;;-148.88;90.45;75452.25;5079205;28;19924;-81
2022/11/07 02:06:46;;;;;;;;;;;;;;;-148.88;90.80;75460.38;5060514;28;19916;-82
2022/11/07 02:09:15;;;;;;;;;;;;;;;-148.88;89.85;75446.16;5055472;28;19912;-81
2022/11/07 02:11:40;;;;;;;;;;;;;;;-148.88;90.39;75452.25;5074439;28;20399;-81
2022/11/07 02:14:05;;;;;;;;;;;;;;;-148.88;90.51;75444.13;5056638;28;19913;-80
2022/11/07 02:16:34;;;;;;;;;;;;;;;-148.88;90.56;75446.16;5057742;28;20389;-82
2022/11/07 02:18:59;;;;;;;;;;;;;;;-148.88;90.05;75444.13;5077462;28;20065;-83
2022/11/07 02:21:24;;;;;;;;;;;;;;;-148.88;90.14;75442.09;5077815;28;20374;-82
2022/11/07 02:24:04;;;;;;;;;;;;;;;-148.88;90.21;75448.19;5077980;28;20424;-82
2022/11/07 02:26:30;;;;;;;;;;;;;;;-148.88;90.65;75440.06;5059357;28;19909;-81
2022/11/07 02:28:56;;;;;;;;;;;;;;;-148.88;90.09;75442.09;5076907;28;19946;-83
2022/11/07 02:31:21;;;;;;;;;;;;;;;-148.88;90.19;75444.13;5059170;28;19908;-82
2022/11/07 02:33:47;;;;;;;;;;;;;;;-148.88;90.05;75440.06;5059291;28;19947;-82
2022/11/07 02:36:14;;;;;;;;;;;;;;;-148.88;89.75;75431.94;5077801;28;19909;-82
2022/11/07 02:38:39;;;;;;;;;;;;;;;-148.88;90.14;75433.97;5058977;28;19939;-82
2022/11/07 02:41:04;;;;;;;;;;;;;;;-148.88;90.06;75440.06;5075985;28;19916;-83
2022/11/07 02:43:30;;;;;;;;;;;;;;;-148.88;90.40;75442.09;5075607;28;19931;-82
2022/11/07 02:45:57;;;;;;;;;;;;;;;-148.88;90.17;75440.06;5073730;28;19912;-82
2022/11/07 02:48:27;;;;;;;;;;;;;;;-148.88;89.95;75448.19;5056129;28;19908;-81
2022/11/07 02:50:52;;;;;;;;;;;;;;;-148.88;90.07;75448.19;5073954;28;19942;-82
2022/11/07 02:53:17;;;;;;;;;;;;;;;-148.88;89.80;75448.19;5074142;28;19915;-82
2022/11/07 02:55:43;;;;;;;;;;;;;;;-148.88;90.61;75460.38;5073315;28;19912;-81
2022/11/07 02:58:08;;;;;;;;;;;;;;;-148.88;90.60;75474.59;5058031;28;20003;-83
2022/11/07 03:00:33;;;;;;;;;;;;;;;-148.88;91.13;75472.56;5059019;28;19972;-82
2022/11/07 03:02:58;;;;;;;;;;;;;;;-148.88;91.36;75476.63;5076212;28;19908;-82
2022/11/07 03:05:23;;;;;;;;;;;;;;;-148.88;92.04;75482.72;5076877;28;20058;-82
2022/11/07 03:07:49;;;;;;;;;;;;;;;-148.88;92.09;75496.94;5076063;28;19913;-81
2022/11/07 03:10:17;;;;;;;;;;;;;;;-148.88;91.98;75501.00;5074400;28;20287;-81
2022/11/07 03:12:42;;;;;;;;;;;;;;;-148.88;92.34;75505.06;5075163;28;20320;-81
2022/11/07 03:15:08;;;;;;;;;;;;;;;-148.88;92.85;75503.03;5056265;28;19912;-81
2022/11/07 03:17:34;;;;;;;;;;;;;;;-148.88;92.58;75486.78;5056636;28;19909;-80
2022/11/07 03:19:59;;;;;;;;;;;;;;;-148.88;92.35;75480.69;5073550;28;19908;-80
2022/11/07 03:22:24;;;;;;;;;;;;;;;-148.88;92.80;75484.75;5073271;28;19909;-81
2022/11/07 03:24:49;;;;;;;;;;;;;;;-148.88;92.33;75486.78;5073549;28;19915;-81
2022/11/07 03:27:15;;;;;;;;;;;;;;;-148.88;92.12;75484.75;5073578;28;19912;-80
2022/11/07 03:29:41;;;;;;;;;;;;;;;-148.88;91.83;75480.69;5073936;28;19920;-80
2022/11/07 03:32:06;;;;;;;;;;;;;;;-148.88;92.30;75470.53;5055943;28;19994;-82
2022/11/07 03:34:31;;;;;;;;;;;;;;;-148.88;92.22;75468.50;5073944;28;20263;-82
2022/11/07 03:36:57;;;;;;;;;;;;;;;-148.88;91.56;75464.44;5056116;28;19908;-81
2022/11/07 03:39:22;;;;;;;;;;;;;;;-148.88;91.87;75466.47;5056076;28;19912;-81
2022/11/07 03:41:47;;;;;;;;;;;;;;;-148.88;91.75;75468.50;5073581;28;19919;-81
2022/11/07 03:44:12;;;;;;;;;;;;;;;-148.88;92.19;75476.63;5055842;28;19969;-81
2022/11/07 03:46:37;;;;;;;;;;;;;;;-148.88;91.30;75462.41;5072422;28;19966;-81
2022/11/07 03:49:03;;;;;;;;;;;;;;;-148.88;90.92;75460.38;5073795;28;20061;-79
2022/11/07 03:51:30;;;;;;;;;;;;;;;-148.88;91.24;75464.44;5056073;28;20366;-82
2022/11/07 03:53:56;;;;;;;;;;;;;;;-148.88;91.40;75460.38;5075082;28;19912;-81
2022/11/07 03:56:21;;;;;;;;;;;;;;;-148.88;91.37;75460.38;5073062;28;19909;-80
2022/11/07 03:58:46;;;;;;;;;;;;;;;-148.88;91.12;75462.41;5072875;28;19915;-81
2022/11/07 04:01:14;;;;;;;;;;;;;;;-148.88;90.94;75466.47;5055185;28;19943;-81
2022/11/07 04:03:40;;;;;;;;;;;;;;;-148.88;91.17;75460.38;5073195;28;19969;-82
2022/11/07 04:06:05;;;;;;;;;;;;;;;-148.88;91.39;75464.44;5055388;28;20302;-80
2022/11/07 04:08:30;;;;;;;;;;;;;;;-148.88;91.49;75476.63;5073725;28;19908;-82
2022/11/07 04:10:56;;;;;;;;;;;;;;;-148.88;91.21;75476.63;5056118;28;19912;-81
2022/11/07 04:19:01;;;;;;;;;;;;;;;-148.88;91.24;75480.69;5074286;28;19915;-83
2022/11/07 04:21:29;;;;;;;;;;;;;;;-148.88;91.63;75480.69;5055651;28;19935;-83
2022/11/07 04:23:54;;;;;;;;;;;;;;;-148.88;91.81;75484.75;5073609;28;19908;-82
2022/11/07 04:29:04;;;;;;;;;;;;;;;-148.88;91.75;75488.81;5078285;28;20046;-83
2022/11/07 04:31:32;;;;;;;;;;;;;;;-148.88;92.27;75484.75;5076429;28;20002;-81
2022/11/07 04:33:57;;;;;;;;;;;;;;;-148.88;92.14;75494.91;5058580;28;19909;-80
2022/11/07 04:36:22;;;;;;;;;;;;;;;-148.88;92.27;75484.75;5076397;28;19915;-81
2022/11/07 04:38:47;;;;;;;;;;;;;;;-148.88;91.75;75484.75;5076478;28;19908;-81
2022/11/07 04:41:23;;;;;;;;;;;;;;;-148.88;92.07;75488.81;5059030;28;20351;-80
2022/11/07 04:43:49;;;;;;;;;;;;;;;-148.88;92.43;75494.91;5057333;28;19947;-82
2022/11/07 04:46:15;;;;;;;;;;;;;;;-148.88;92.07;75488.81;5058895;28;19915;-83
2022/11/07 04:48:40;;;;;;;;;;;;;;;-148.88;91.94;75480.69;5058563;28;19908;-82
2022/11/07 04:51:05;;;;;;;;;;;;;;;-148.88;91.95;75484.75;5076279;28;20247;-82
2022/11/07 04:53:30;;;;;;;;;;;;;;;-148.88;92.00;75494.91;5076534;28;19908;-82
2022/11/07 04:55:56;;;;;;;;;;;;;;;-148.88;92.49;75480.69;5076823;28;20011;-82
2022/11/07 04:58:21;;;;;;;;;;;;;;;-148.88;92.37;75482.72;5058641;28;19957;-83
2022/11/07 05:00:46;;;;;;;;;;;;;;;-148.88;92.29;75484.75;5075609;28;20381;-80
2022/11/07 05:03:11;;;;;;;;;;;;;;;-148.88;91.93;75482.72;5059280;28;19908;-82
2022/11/07 05:05:36;;;;;;;;;;;;;;;-148.88;92.34;75480.69;5076906;28;19916;-82
2022/11/07 05:08:02;;;;;;;;;;;;;;;-148.88;92.17;75480.69;5057960;28;19958;-80
2022/11/07 05:10:27;;;;;;;;;;;;;;;-148.88;92.20;75480.69;5058148;28;20327;-81
2022/11/07 05:12:52;;;;;;;;;;;;;;;-148.88;92.26;75476.63;5076264;28;20359;-81
2022/11/07 05:15:18;;;;;;;;;;;;;;;-148.88;92.27;75476.63;5076381;28;19908;-82
2022/11/07 05:17:43;;;;;;;;;;;;;;;-148.88;92.49;75474.59;5059268;28;19947;-81
2022/11/07 05:20:28;;;;;;;;;;;;;;;-148.88;92.00;75468.50;5058836;28;20385;-82
2022/11/07 05:25:38;;;;;;;;;;;;;;;-148.88;91.80;75464.44;5077642;28;19938;-82
2022/11/07 05:28:04;;;;;;;;;;;;;;;-148.88;91.93;75464.44;5077619;28;19908;-81
2022/11/07 05:30:29;;;;;;;;;;;;;;;-148.88;92.24;75460.38;5060169;28;19921;-82
2022/11/07 05:32:54;;;;;;;;;;;;;;;-148.88;92.17;75468.50;5059137;28;19909;-82
2022/11/07 05:35:26;;;;;;;;;;;;;;;-148.88;92.32;75468.50;5077318;28;19916;-82
2022/11/07 05:37:51;;;;;;;;;;;;;;;-148.88;92.19;75464.44;5057847;28;19908;-83
2022/11/07 05:40:16;;;;;;;;;;;;;;;-148.88;92.27;75462.41;5057795;28;20286;-81
2022/11/07 05:42:47;;;;;;;;;;;;;;;-148.88;92.21;75470.53;5057228;28;19912;-82
2022/11/07 05:45:12;;;;;;;;;;;;;;;-148.88;92.09;75468.50;5057867;28;19908;-83
2022/11/07 05:47:37;;;;;;;;;;;;;;;-148.88;91.85;75466.47;5057969;28;19908;-84
2022/11/07 05:50:03;;;;;;;;;;;;;;;-148.88;92.06;75472.56;5057618;28;20334;-81
2022/11/07 05:52:28;;;;;;;;;;;;;;;-148.88;92.01;75472.56;5075642;28;20433;-82
2022/11/07 05:55:01;;;;;;;;;;;;;;;-148.88;92.14;75472.56;5058087;28;19908;-82
2022/11/07 05:57:32;;;;;;;;;;;;;;;-148.88;91.85;75464.44;5076585;28;19974;-81
2022/11/07 05:59:57;;;;;;;;;;;;;;;-148.88;91.77;75468.50;5059094;28;19909;-81
2022/11/07 06:02:25;;;;;;;;;;;;;;;-148.88;92.01;75464.44;5076551;28;19931;-83
2022/11/07 06:04:50;;;;;;;;;;;;;;;-148.88;92.03;75468.50;5057977;28;19915;-83
2022/11/07 06:07:28;;;;;;;;;;;;;;;-148.88;91.34;75468.50;5058552;28;19944;-84
2022/11/07 06:09:53;;;;;;;;;;;;;;;-148.88;91.95;75468.50;5057411;28;19913;-85
2022/11/07 06:12:18;;;;;;;;;;;;;;;-148.88;91.57;75468.50;5057495;28;19958;-85
2022/11/07 06:14:46;;;;;;;;;;;;;;;-148.88;91.83;75468.50;5056827;28;19915;-85
2022/11/07 06:17:27;;;;;;;;;;;;;;;-148.88;91.85;75470.53;5058022;28;19908;-85
2022/11/07 06:19:52;;;;;;;;;;;;;;;-148.88;91.98;75472.56;5057166;28;19908;-85
2022/11/07 06:22:18;;;;;;;;;;;;;;;-148.88;91.40;75470.53;5056823;28;20323;-85
2022/11/07 06:24:43;;;;;;;;;;;;;;;-148.88;91.21;75468.50;5057742;28;19908;-85
2022/11/07 06:27:13;;;;;;;;;;;;;;;-148.88;91.38;75484.75;5057857;28;20337;-85
2022/11/07 06:29:41;;;;;;;;;;;;;;;-148.88;91.77;75480.69;5056535;28;19919;-85
2022/11/07 06:32:14;;;;;;;;;;;;;;;-148.88;91.53;75484.75;5057254;28;20001;-86
2022/11/07 06:34:39;;;;;;;;;;;;;;;-148.88;91.35;75474.59;5060620;28;19908;-84
2022/11/07 06:37:05;;;;;;;;;;;;;;;-148.88;91.36;75480.69;5077445;28;19908;-85
2022/11/07 06:39:33;;;;;;;;;;;;;;;-148.88;91.07;75480.69;5059488;28;19919;-85
2022/11/07 06:41:58;;;;;;;;;;;;;;;-148.88;91.43;75484.75;5058409;28;19912;-85
2022/11/07 06:44:26;;;;;;;;;;;;;;;-148.88;91.21;75488.81;5057807;28;19908;-85
2022/11/07 06:46:51;;;;;;;;;;;;;;;-148.88;91.12;75484.75;5057387;28;20278;-83
2022/11/07 06:49:19;;;;;;;;;;;;;;;-148.88;91.21;75492.88;5057035;28;20383;-86
2022/11/07 06:51:44;;;;;;;;;;;;;;;-148.88;91.09;75505.06;5057120;28;19908;-84
2022/11/07 06:54:12;;;;;;;;;;;;;;;-148.88;91.12;75490.84;5056806;28;19933;-85
2022/11/07 06:56:40;;;;;;;;;;;;;;;-148.88;90.92;75496.94;5056631;28;19912;-86
2022/11/07 06:59:06;;;;;;;;;;;;;;;-148.88;90.43;75494.91;5072760;28;19947;-85
2022/11/07 07:01:34;;;;;;;;;;;;;;;-148.88;90.78;75505.06;5057810;28;19908;-86
2022/11/07 07:04:02;;;;;;;;;;;;;;;-148.88;90.49;75501.00;5074601;28;19915;-84
2022/11/07 07:06:36;;;;;;;;;;;;;;;-148.88;90.83;75501.00;5056274;28;20012;-86
2022/11/07 07:09:02;;;;;;;;;;;;;;;-148.88;90.58;75492.88;5056832;28;19915;-84
2022/11/07 07:11:27;;;;;;;;;;;;;;;-148.88;89.96;75503.03;5056918;28;19909;-85
2022/11/07 07:13:57;;;;;;;;;;;;;;;-148.88;90.02;75494.91;5056789;28;19915;-85
2022/11/07 07:16:28;;;;;;;;;;;;;;;-148.88;90.28;75505.06;5074420;28;20362;-85
2022/11/07 07:18:56;;;;;;;;;;;;;;;-148.88;89.68;75492.88;5056255;28;19908;-85
2022/11/07 07:21:22;;;;;;;;;;;;;;;-148.88;90.11;75494.91;5055985;28;19908;-85
2022/11/07 07:23:50;;;;;;;;;;;;;;;-148.88;89.66;75494.91;5056912;28;19947;-86
2022/11/07 07:26:15;;;;;;;;;;;;;;;-148.88;89.46;75505.06;5074968;28;19916;-86
2022/11/07 07:28:41;;;;;;;;;;;;;;;-148.88;89.73;75501.00;5055770;28;19909;-86
2022/11/07 07:31:08;;;;;;;;;;;;;;;-148.88;90.14;75509.13;5052906;28;20276;-85
2022/11/07 07:33:39;;;;;;;;;;;;;;;-148.88;89.70;75496.94;5056122;28;19931;-85
2022/11/07 07:36:05;;;;;;;;;;;;;;;-148.88;89.73;75503.03;5056747;28;19916;-86
2022/11/07 07:38:30;;;;;;;;;;;;;;;-148.88;90.03;75498.97;5055663;28;19908;-85
2022/11/07 07:40:58;;;;;;;;;;;;;;;-148.88;89.33;75492.88;5055461;28;19916;-84
2022/11/07 07:43:24;;;;;;;;;;;;;;;-148.88;89.24;75492.88;5055950;28;19923;-85
2022/11/07 07:45:49;;;;;;;;;;;;;;;-148.88;89.82;75496.94;5057285;28;19912;-86
2022/11/07 07:48:15;;;;;;;;;;;;;;;-148.88;89.13;75494.91;5057002;28;19908;-85
2022/11/07 07:50:40;;;;;;;;;;;;;;;-148.88;89.32;75503.03;5073906;28;19912;-86
2022/11/07 07:53:05;;;;;;;;;;;;;;;-148.88;89.27;75492.88;5074589;28;20003;-85
2022/11/07 07:55:30;;;;;;;;;;;;;;;-148.88;89.40;75494.91;5056156;28;19916;-86
2022/11/07 07:57:56;;;;;;;;;;;;;;;-148.88;88.95;75488.81;5055710;28;19913;-84
2022/11/07 08:00:23;;;;;;;;;;;;;;;-148.88;88.59;75488.81;5055532;28;19943;-85
2022/11/07 08:02:49;;;;;;;;;;;;;;;-148.88;88.97;75484.75;5059702;28;19908;-86
2022/11/07 08:05:14;;;;;;;;;;;;;;;-148.88;89.48;75486.78;5076694;28;19931;-85
2022/11/07 08:07:56;;;;;;;;;;;;;;;-148.88;89.45;75482.72;5059137;28;19908;-86
2022/11/07 08:10:24;;;;;;;;;;;;;;;-148.88;88.70;75488.81;5058699;28;19912;-86
2022/11/07 08:12:50;;;;;;;;;;;;;;;-148.88;89.00;75492.88;5058984;28;19908;-85
2022/11/07 08:15:18;;;;;;;;;;;;;;;-148.88;89.04;75488.81;5058413;28;19915;-85
2022/11/07 08:17:44;;;;;;;;;;;;;;;-148.88;89.14;75486.78;5059762;28;19908;-86
2022/11/07 08:20:10;;;;;;;;;;;;;;;-148.88;88.91;75488.81;5059601;28;19915;-85
2022/11/07 08:22:36;;;;;;;;;;;;;;;-148.88;88.97;75486.78;5059758;28;19939;-85
2022/11/07 08:25:02;;;;;;;;;;;;;;;-148.88;89.02;75482.72;5060094;28;19916;-84
2022/11/07 08:27:27;;;;;;;;;;;;;;;-148.88;89.02;75480.69;5058734;28;19915;-84
2022/11/07 08:29:52;;;;;;;;;;;;;;;-148.88;89.43;75480.69;5058785;28;19982;-83
2022/11/07 08:32:18;;;;;;;;;;;;;;;-148.88;89.09;75488.81;5059441;28;19915;-84
2022/11/07 08:34:43;;;;;;;;;;;;;;;-148.88;88.95;75474.59;5058283;28;20467;-84
2022/11/07 08:37:08;;;;;;;;;;;;;;;-148.88;88.66;75472.56;5059783;28;19909;-83
2022/11/07 08:39:33;;;;;;;;;;;;;;;-148.88;88.76;75468.50;5058727;28;19908;-87
2022/11/07 08:42:02;;;;;;;;;;;;;;;-148.88;88.45;75464.44;5058574;28;20333;-85
2022/11/07 08:44:33;;;;;;;;;;;;;;;-148.88;88.66;75466.47;5058917;28;19912;-85
2022/11/07 08:47:22;;;;;;;;;;;;;;;-148.88;88.23;75458.34;5057753;28;19908;-86
2022/11/07 08:49:47;;;;;;;;;;;;;;;-148.88;88.84;75448.19;5076021;28;20066;-86
2022/11/07 08:52:15;;;;;;;;;;;;;;;-148.88;88.63;75448.19;5058082;28;19947;-87
2022/11/07 08:54:48;;;;;;;;;;;;;;;-148.88;87.70;75423.81;5058791;28;19938;-86
2022/11/07 08:57:14;;;;;;;;;;;;;;;-148.88;87.58;75415.69;5058659;28;20397;-86
2022/11/07 08:59:39;;;;;;;;;;;;;;;-148.88;87.01;75409.59;5058046;28;19908;-86
2022/11/07 09:02:04;;;;;;;;;;;;;;;-148.88;87.33;75375.06;5057980;28;20007;-86
2022/11/07 09:04:30;;;;;;;;;;;;;;;-148.88;85.72;75344.59;5058245;28;20360;-84
2022/11/07 09:07:01;;;;;;;;;;;;;;;-148.88;84.47;75336.47;5059052;28;19908;-88
2022/11/07 09:09:27;;;;;;;;;;;;;;;-148.88;84.85;75342.56;5058538;28;19919;-87
2022/11/07 09:11:57;;;;;;;;;;;;;;;-148.88;83.92;75334.44;5057661;28;19909;-86
2022/11/07 09:14:22;;;;;;;;;;;;;;;-148.88;84.61;75344.59;5057934;28;20354;-86
2022/11/07 09:16:51;;;;;;;;;;;;;;;-148.88;85.10;75342.56;5057535;28;19958;-85
2022/11/07 09:19:22;;;;;;;;;;;;;;;-148.88;84.63;75346.63;5057496;28;19909;-88
2022/11/07 09:21:48;;;;;;;;;;;;;;;-148.88;84.15;75326.31;5057697;28;20427;-87
2022/11/07 09:24:13;;;;;;;;;;;;;;;-148.88;84.90;75316.16;5058488;28;19938;-89
2022/11/07 09:26:38;;;;;;;;;;;;;;;-148.88;84.08;75318.19;5075499;28;20293;-89
2022/11/07 09:29:03;;;;;;;;;;;;;;;-148.88;84.53;75314.13;5057644;28;19908;-87
2022/11/07 09:31:28;;;;;;;;;;;;;;;-148.88;83.15;75322.25;5057409;28;19910;-86
2022/11/07 09:33:54;;;;;;;;;;;;;;;-148.88;83.73;75324.28;5057778;28;19958;-84
2022/11/07 09:36:23;;;;;;;;;;;;;;;-148.88;83.65;75332.41;5075810;28;19935;-84
2022/11/07 09:38:48;;;;;;;;;;;;;;;-148.88;83.75;75332.41;5056019;28;19995;-84
2022/11/07 09:41:27;;;;;;;;;;;;;;;-148.88;83.92;75330.38;5057746;28;20368;-86
2022/11/07 09:44:12;;;;;;;;;;;;;;;-148.88;83.79;75326.31;5076605;28;19930;-85
2022/11/07 09:46:49;;;;;;;;;;;;;;;-148.88;83.58;75326.31;5076371;28;19912;-85
2022/11/07 09:49:36;;;;;;;;;;;;;;;-148.88;84.17;75330.38;5075442;28;19962;-84
2022/11/07 09:52:19;;;;;;;;;;;;;;;-148.88;84.33;75330.38;5075238;28;20007;-83
2022/11/07 09:54:54;;;;;;;;;;;;;;;-148.88;84.69;75326.31;5057415;28;19923;-84
2022/11/07 09:57:20;;;;;;;;;;;;;;;-148.88;83.96;75326.31;5057105;28;19994;-85
2022/11/07 09:59:53;;;;;;;;;;;;;;;-148.88;84.37;75316.16;5057289;28;19908;-85
2022/11/07 10:02:22;;;;;;;;;;;;;;;-148.88;83.85;75312.09;5057632;28;20432;-85
2022/11/07 10:04:52;;;;;;;;;;;;;;;-148.88;84.24;75308.03;5057088;28;19989;-83
2022/11/07 10:07:35;;;;;;;;;;;;;;;-148.88;83.45;75312.09;5057930;28;19919;-85
2022/11/07 10:10:23;;;;;;;;;;;;;;;-148.88;84.07;75310.06;5057873;28;19913;-85
2022/11/07 10:12:58;;;;;;;;;;;;;;;-148.88;84.17;75312.09;5028380;28;19945;-85
2022/11/07 10:15:23;;;;;;;;;;;;;;;-148.88;83.26;75308.03;5056924;28;19908;-85
2022/11/07 10:17:56;;;;;;;;;;;;;;;-148.88;84.00;75324.28;5056442;28;19995;-86
2022/11/07 10:20:24;;;;;;;;;;;;;;;-148.88;83.99;75324.28;5057154;28;19908;-84
2022/11/07 10:22:56;;;;;;;;;;;;;;;-148.88;84.47;75322.25;5056241;28;19958;-85
2022/11/07 10:25:27;;;;;;;;;;;;;;;-148.88;83.99;75314.13;5074897;28;20405;-83
2022/11/07 10:28:00;;;;;;;;;;;;;;;-148.88;84.14;75316.16;5057546;28;19908;-84
2022/11/07 10:30:25;;;;;;;;;;;;;;;-148.88;83.92;75314.13;5074853;28;20358;-85
2022/11/07 10:32:50;;;;;;;;;;;;;;;-148.88;84.18;75310.06;5056868;28;19931;-85
2022/11/07 10:35:27;;;;;;;;;;;;;;;-148.88;84.44;75301.94;5057201;28;19909;-84
2022/11/07 10:37:53;;;;;;;;;;;;;;;-148.88;83.05;75293.81;5075285;28;20002;-86
2022/11/07 10:40:41;;;;;;;;;;;;;;;-148.88;83.17;75277.59;5074727;28;19916;-85
2022/11/07 10:43:33;;;;;;;;;;;;;;;-148.88;83.93;75265.41;5073636;28;19919;-85
2022/11/07 10:46:00;;;;;;;;;;;;;;;-148.88;83.00;75255.25;5056646;28;19912;-85
2022/11/07 10:48:28;;;;;;;;;;;;;;;-148.88;82.31;75228.84;5056517;28;19908;-85
2022/11/07 10:50:53;;;;;;;;;;;;;;;-148.88;80.74;75192.28;5074659;28;19962;-84
2022/11/07 10:53:23;;;;;;;;;;;;;;;-148.88;80.60;75178.06;5074276;28;19908;-87
2022/11/07 10:55:52;;;;;;;;;;;;;;;-148.88;80.15;75182.13;5057211;28;19948;-85
2022/11/07 10:58:17;;;;;;;;;;;;;;;-148.88;79.56;75174.00;5074219;28;19923;-85
2022/11/07 11:00:46;;;;;;;;;;;;;;;-148.88;80.35;75192.28;5056053;28;19909;-84
2022/11/07 11:03:19;;;;;;;;;;;;;;;-148.88;80.70;75198.38;5056038;28;20374;-85
2022/11/07 11:05:47;;;;;;;;;;;;;;;-148.88;81.01;75188.22;5058117;28;19908;-86
2022/11/07 11:08:26;;;;;;;;;;;;;;;-148.88;81.22;75192.28;5056844;28;19908;-86
2022/11/07 11:10:52;;;;;;;;;;;;;;;-148.88;81.77;75188.22;5056473;28;19912;-85
2022/11/07 11:13:25;;;;;;;;;;;;;;;-148.88;81.32;75188.22;5056013;28;19916;-86
2022/11/07 11:15:51;;;;;;;;;;;;;;;-148.88;81.12;75188.22;5057114;28;20393;-86
2022/11/07 11:18:23;;;;;;;;;;;;;;;-148.88;81.26;75186.19;5055676;28;19951;-85
2022/11/07 11:21:00;;;;;;;;;;;;;;;-148.88;80.73;75184.16;5056515;28;19934;-87
2022/11/07 11:23:35;;;;;;;;;;;;;;;-148.88;80.65;75165.88;5055970;28;19908;-86
2022/11/07 11:26:17;;;;;;;;;;;;;;;-148.88;80.83;75145.56;5074580;28;20330;-84
2022/11/07 11:28:51;;;;;;;;;;;;;;;-148.88;79.54;75159.78;5056113;28;19920;-86
2022/11/07 11:31:38;;;;;;;;;;;;;;;-148.88;79.76;75180.09;5056121;28;19999;-86
2022/11/07 11:34:09;;;;;;;;;;;;;;;-148.88;79.75;75171.97;5055904;28;19915;-84
2022/11/07 11:36:40;;;;;;;;;;;;;;;-148.88;79.26;75180.09;5075445;28;19908;-84
2022/11/07 11:39:14;;;;;;;;;;;;;;;-148.88;80.35;75188.22;5059530;28;19908;-86
2022/11/07 11:41:56;;;;;;;;;;;;;;;-148.88;81.70;75184.16;5093984;22;19942;-85
2022/11/07 11:44:35;;;;;;;;;;;;;;;-148.88;81.24;75180.09;5081095;28;20340;-85
2022/11/07 11:47:12;;;;;;;;;;;;;;;-148.88;81.55;75184.16;5064033;28;19912;-85
2022/11/07 11:49:58;;;;;;;;;;;;;;;-148.88;81.51;75155.72;5081856;28;19951;-86
2022/11/07 11:52:24;;;;;;;;;;;;;;;-148.88;80.92;75171.97;5063212;28;20259;-85
2022/11/07 11:54:50;;;;;;;;;;;;;;;-148.88;81.91;75180.09;5064947;28;19908;-86
2022/11/07 11:57:22;;;;;;;;;;;;;;;-148.88;81.79;75204.47;5084577;28;19919;-84
2022/11/07 12:00:06;;;;;;;;;;;;;;;-148.88;83.17;75218.69;5085918;28;20362;-85
2022/11/07 12:02:50;;;;;;;;;;;;;;;-148.88;82.33;75212.59;5066550;28;19990;-85
2022/11/07 12:05:24;;;;;;;;;;;;;;;-148.88;82.98;75220.72;5078744;28;19916;-85
2022/11/07 12:08:13;;;;;;;;;;;;;;;-148.88;83.79;75216.66;5067102;28;19915;-85
2022/11/07 12:10:56;;;;;;;;;;;;;;;-148.88;84.40;75241.03;5043362;28;20329;-85
2022/11/07 12:13:27;;;;;;;;;;;;;;;-148.88;87.16;75251.19;5082874;28;20003;-85
2022/11/07 12:16:14;;;;;;;;;;;;;;;-148.88;87.68;75251.19;5066037;28;19934;-86
2022/11/07 12:18:48;;;;;;;;;;;;;;;-148.88;87.15;75245.09;5064954;28;19934;-86
2022/11/07 12:21:29;;;;;;;;;;;;;;;-148.88;86.63;75247.13;5083801;28;19915;-86
2022/11/07 12:23:54;;;;;;;;;;;;;;;-148.88;87.13;75236.97;5066312;28;19939;-86
2022/11/07 12:26:25;;;;;;;;;;;;;;;-148.88;87.25;75236.97;5084534;28;19912;-84
2022/11/07 12:28:56;;;;;;;;;;;;;;;-148.88;88.06;75239.00;5065275;28;19944;-85
2022/11/07 12:31:30;;;;;;;;;;;;;;;-148.88;90.26;75271.50;5066916;28;19963;-86
2022/11/07 12:34:13;;;;;;;;;;;;;;;-148.88;93.81;75285.69;5065490;28;19908;-86
2022/11/07 12:36:57;;;;;;;;;;;;;;;-148.88;97.31;75318.19;5066562;28;19912;-86
2022/11/07 12:39:33;;;;;;;;;;;;;;;-148.88;97.58;75338.50;5065785;28;19908;-85
2022/11/07 12:42:05;;;;;;;;;;;;;;;-148.88;98.63;75350.69;5066911;28;19912;-86
2022/11/07 12:44:41;;;;;;;;;;;;;;;-148.88;99.22;75364.91;5085401;28;19917;-85
2022/11/07 12:47:13;;;;;;;;;;;;;;;-148.88;99.35;75362.88;5082767;28;20263;-86
2022/11/07 12:49:56;;;;;;;;;;;;;;;-148.88;99.62;75366.94;5070607;28;20306;-86